sensor_id;sensor_type;location;lat;lon;timestamp;P1;durP1;ratioP1;P2;durP2;ratioP2
54384;SDS011;40284;52.878;5.998;2023-04-24T00:00:11;3.08;;;2.78;;
54384;SDS011;40284;52.878;5.998;2023-04-24T00:02:41;2.50;;;2.13;;
54384;SDS011;40284;52.878;5.998;2023-04-24T00:05:11;2.47;;;2.25;;
54384;SDS011;40284;52.878;5.998;2023-04-24T00:07:39;2.97;;;2.47;;
54384;SDS011;40284;52.878;5.998;2023-04-24T00:10:06;3.22;;;2.33;;
54384;SDS011;40284;52.878;5.998;2023-04-24T00:12:32;2.58;;;2.25;;
54384;SDS011;40284;52.878;5.998;2023-04-24T00:14:58;2.50;;;2.17;;
54384;SDS011;40284;52.878;5.998;2023-04-24T00:17:24;3.28;;;2.20;;
54384;SDS011;40284;52.878;5.998;2023-04-24T00:19:50;4.90;;;2.72;;
54384;SDS011;40284;52.878;5.998;2023-04-24T00:22:23;3.83;;;2.77;;
54384;SDS011;40284;52.878;5.998;2023-04-24T00:24:49;3.75;;;2.90;;
54384;SDS011;40284;52.878;5.998;2023-04-24T00:27:15;3.10;;;2.38;;
54384;SDS011;40284;52.878;5.998;2023-04-24T00:29:41;3.45;;;2.53;;
54384;SDS011;40284;52.878;5.998;2023-04-24T00:32:07;3.60;;;2.63;;
54384;SDS011;40284;52.878;5.998;2023-04-24T00:34:33;3.00;;;2.70;;
54384;SDS011;40284;52.878;5.998;2023-04-24T00:36:59;3.80;;;2.83;;
54384;SDS011;40284;52.878;5.998;2023-04-24T00:39:26;3.28;;;2.92;;
54384;SDS011;40284;52.878;5.998;2023-04-24T00:41:52;4.13;;;3.25;;
54384;SDS011;40284;52.878;5.998;2023-04-24T00:44:18;3.00;;;2.70;;
54384;SDS011;40284;52.878;5.998;2023-04-24T00:46:44;3.35;;;2.78;;
54384;SDS011;40284;52.878;5.998;2023-04-24T00:49:11;3.70;;;2.78;;
54384;SDS011;40284;52.878;5.998;2023-04-24T00:51:37;3.75;;;2.97;;
54384;SDS011;40284;52.878;5.998;2023-04-24T00:54:05;3.60;;;2.92;;
54384;SDS011;40284;52.878;5.998;2023-04-24T00:56:31;5.22;;;3.25;;
54384;SDS011;40284;52.878;5.998;2023-04-24T00:58:58;4.32;;;3.55;;
54384;SDS011;40284;52.878;5.998;2023-04-24T01:01:24;4.07;;;3.15;;
54384;SDS011;40284;52.878;5.998;2023-04-24T01:03:51;3.47;;;3.17;;
54384;SDS011;40284;52.878;5.998;2023-04-24T01:06:18;3.90;;;3.42;;
54384;SDS011;40284;52.878;5.998;2023-04-24T01:08:44;4.53;;;3.50;;
54384;SDS011;40284;52.878;5.998;2023-04-24T01:11:11;5.75;;;4.28;;
54384;SDS011;40284;52.878;5.998;2023-04-24T01:13:37;4.40;;;4.00;;
54384;SDS011;40284;52.878;5.998;2023-04-24T01:16:03;3.95;;;3.55;;
54384;SDS011;40284;52.878;5.998;2023-04-24T01:18:29;4.60;;;3.80;;
54384;SDS011;40284;52.878;5.998;2023-04-24T01:20:56;4.60;;;4.10;;
54384;SDS011;40284;52.878;5.998;2023-04-24T01:23:23;6.80;;;4.55;;
54384;SDS011;40284;52.878;5.998;2023-04-24T01:25:49;5.15;;;4.28;;
54384;SDS011;40284;52.878;5.998;2023-04-24T01:28:16;9.95;;;5.38;;
54384;SDS011;40284;52.878;5.998;2023-04-24T01:30:43;6.65;;;4.93;;
54384;SDS011;40284;52.878;5.998;2023-04-24T01:33:09;5.32;;;4.80;;
54384;SDS011;40284;52.878;5.998;2023-04-24T01:35:35;5.85;;;4.88;;
54384;SDS011;40284;52.878;5.998;2023-04-24T01:38:02;5.53;;;5.00;;
54384;SDS011;40284;52.878;5.998;2023-04-24T01:40:28;8.77;;;5.53;;
54384;SDS011;40284;52.878;5.998;2023-04-24T01:42:54;6.28;;;5.53;;
54384;SDS011;40284;52.878;5.998;2023-04-24T01:45:21;7.65;;;5.40;;
54384;SDS011;40284;52.878;5.998;2023-04-24T01:47:47;5.63;;;5.13;;
54384;SDS011;40284;52.878;5.998;2023-04-24T01:50:14;6.00;;;5.32;;
54384;SDS011;40284;52.878;5.998;2023-04-24T01:52:40;5.40;;;4.90;;
54384;SDS011;40284;52.878;5.998;2023-04-24T01:55:06;9.50;;;6.70;;
54384;SDS011;40284;52.878;5.998;2023-04-24T01:57:32;6.95;;;6.35;;
54384;SDS011;40284;52.878;5.998;2023-04-24T01:59:59;7.45;;;6.75;;
54384;SDS011;40284;52.878;5.998;2023-04-24T02:02:25;8.00;;;6.97;;
54384;SDS011;40284;52.878;5.998;2023-04-24T02:04:55;8.73;;;7.85;;
54384;SDS011;40284;52.878;5.998;2023-04-24T02:07:21;8.73;;;7.88;;
54384;SDS011;40284;52.878;5.998;2023-04-24T02:09:47;8.65;;;7.85;;
54384;SDS011;40284;52.878;5.998;2023-04-24T02:12:13;9.75;;;8.75;;
54384;SDS011;40284;52.878;5.998;2023-04-24T02:14:39;9.30;;;8.38;;
54384;SDS011;40284;52.878;5.998;2023-04-24T02:17:07;10.68;;;9.57;;
54384;SDS011;40284;52.878;5.998;2023-04-24T02:19:33;10.00;;;9.10;;
54384;SDS011;40284;52.878;5.998;2023-04-24T02:21:59;11.52;;;10.38;;
54384;SDS011;40284;52.878;5.998;2023-04-24T02:24:25;12.70;;;11.43;;
54384;SDS011;40284;52.878;5.998;2023-04-24T02:26:51;11.85;;;10.75;;
54384;SDS011;40284;52.878;5.998;2023-04-24T02:29:17;13.35;;;11.55;;
54384;SDS011;40284;52.878;5.998;2023-04-24T02:31:43;13.30;;;11.02;;
54384;SDS011;40284;52.878;5.998;2023-04-24T02:34:09;12.27;;;10.85;;
54384;SDS011;40284;52.878;5.998;2023-04-24T02:36:36;12.05;;;10.95;;
54384;SDS011;40284;52.878;5.998;2023-04-24T02:39:02;11.57;;;10.45;;
54384;SDS011;40284;52.878;5.998;2023-04-24T02:41:28;11.60;;;10.52;;
54384;SDS011;40284;52.878;5.998;2023-04-24T02:43:57;13.45;;;11.88;;
54384;SDS011;40284;52.878;5.998;2023-04-24T02:46:23;12.52;;;11.30;;
54384;SDS011;40284;52.878;5.998;2023-04-24T02:48:50;14.48;;;11.95;;
54384;SDS011;40284;52.878;5.998;2023-04-24T02:51:16;12.95;;;11.43;;
54384;SDS011;40284;52.878;5.998;2023-04-24T02:53:42;13.35;;;11.10;;
54384;SDS011;40284;52.878;5.998;2023-04-24T02:56:08;13.68;;;11.57;;
54384;SDS011;40284;52.878;5.998;2023-04-24T02:58:37;12.75;;;10.90;;
54384;SDS011;40284;52.878;5.998;2023-04-24T03:01:03;11.65;;;10.50;;
54384;SDS011;40284;52.878;5.998;2023-04-24T03:03:30;12.15;;;10.90;;
54384;SDS011;40284;52.878;5.998;2023-04-24T03:05:56;11.75;;;10.55;;
54384;SDS011;40284;52.878;5.998;2023-04-24T03:08:22;14.20;;;12.70;;
54384;SDS011;40284;52.878;5.998;2023-04-24T03:10:48;13.25;;;11.88;;
54384;SDS011;40284;52.878;5.998;2023-04-24T03:13:17;12.57;;;11.38;;
54384;SDS011;40284;52.878;5.998;2023-04-24T03:15:43;13.73;;;12.32;;
54384;SDS011;40284;52.878;5.998;2023-04-24T03:18:11;13.48;;;12.10;;
54384;SDS011;40284;52.878;5.998;2023-04-24T03:20:37;13.20;;;11.90;;
54384;SDS011;40284;52.878;5.998;2023-04-24T03:23:03;16.60;;;13.30;;
54384;SDS011;40284;52.878;5.998;2023-04-24T03:25:29;14.63;;;13.15;;
54384;SDS011;40284;52.878;5.998;2023-04-24T03:27:55;13.18;;;11.95;;
54384;SDS011;40284;52.878;5.998;2023-04-24T03:30:21;13.50;;;12.07;;
54384;SDS011;40284;52.878;5.998;2023-04-24T03:32:47;15.35;;;13.77;;
54384;SDS011;40284;52.878;5.998;2023-04-24T03:35:14;15.98;;;14.38;;
54384;SDS011;40284;52.878;5.998;2023-04-24T03:37:40;11.93;;;9.90;;
54384;SDS011;40284;52.878;5.998;2023-04-24T03:40:06;11.18;;;9.68;;
54384;SDS011;40284;52.878;5.998;2023-04-24T03:42:33;11.88;;;9.50;;
54384;SDS011;40284;52.878;5.998;2023-04-24T03:44:59;6.70;;;6.00;;
54384;SDS011;40284;52.878;5.998;2023-04-24T03:47:25;6.10;;;4.65;;
54384;SDS011;40284;52.878;5.998;2023-04-24T03:49:51;4.85;;;3.75;;
54384;SDS011;40284;52.878;5.998;2023-04-24T03:52:18;3.90;;;3.25;;
54384;SDS011;40284;52.878;5.998;2023-04-24T03:54:44;4.82;;;4.00;;
54384;SDS011;40284;52.878;5.998;2023-04-24T03:57:10;8.02;;;6.53;;
54384;SDS011;40284;52.878;5.998;2023-04-24T03:59:37;8.25;;;6.03;;
54384;SDS011;40284;52.878;5.998;2023-04-24T04:02:03;11.40;;;9.45;;
54384;SDS011;40284;52.878;5.998;2023-04-24T04:04:29;10.93;;;9.30;;
54384;SDS011;40284;52.878;5.998;2023-04-24T04:06:55;10.27;;;8.85;;
54384;SDS011;40284;52.878;5.998;2023-04-24T04:09:21;10.65;;;9.65;;
54384;SDS011;40284;52.878;5.998;2023-04-24T04:11:47;9.70;;;8.57;;
54384;SDS011;40284;52.878;5.998;2023-04-24T04:14:13;13.15;;;11.75;;
54384;SDS011;40284;52.878;5.998;2023-04-24T04:16:39;15.48;;;12.75;;
54384;SDS011;40284;52.878;5.998;2023-04-24T04:19:06;15.80;;;11.63;;
54384;SDS011;40284;52.878;5.998;2023-04-24T04:21:32;17.70;;;14.07;;
54384;SDS011;40284;52.878;5.998;2023-04-24T04:23:58;17.58;;;15.70;;
54384;SDS011;40284;52.878;5.998;2023-04-24T04:26:24;18.42;;;14.95;;
54384;SDS011;40284;52.878;5.998;2023-04-24T04:28:51;17.25;;;14.10;;
54384;SDS011;40284;52.878;5.998;2023-04-24T04:31:18;18.50;;;13.45;;
54384;SDS011;40284;52.878;5.998;2023-04-24T04:33:44;19.42;;;13.90;;
54384;SDS011;40284;52.878;5.998;2023-04-24T04:36:10;15.45;;;12.63;;
54384;SDS011;40284;52.878;5.998;2023-04-24T04:38:37;17.67;;;14.25;;
54384;SDS011;40284;52.878;5.998;2023-04-24T04:41:03;14.40;;;12.63;;
54384;SDS011;40284;52.878;5.998;2023-04-24T04:43:30;15.10;;;12.40;;
54384;SDS011;40284;52.878;5.998;2023-04-24T04:45:57;18.15;;;14.15;;
54384;SDS011;40284;52.878;5.998;2023-04-24T04:48:26;16.90;;;13.93;;
54384;SDS011;40284;52.878;5.998;2023-04-24T04:50:52;15.52;;;12.55;;
54384;SDS011;40284;52.878;5.998;2023-04-24T04:53:18;18.10;;;13.48;;
54384;SDS011;40284;52.878;5.998;2023-04-24T04:55:44;13.68;;;11.68;;
54384;SDS011;40284;52.878;5.998;2023-04-24T04:58:11;12.70;;;10.68;;
54384;SDS011;40284;52.878;5.998;2023-04-24T05:00:37;12.35;;;8.68;;
54384;SDS011;40284;52.878;5.998;2023-04-24T05:03:04;10.13;;;7.63;;
54384;SDS011;40284;52.878;5.998;2023-04-24T05:05:30;8.93;;;7.93;;
54384;SDS011;40284;52.878;5.998;2023-04-24T05:07:56;9.85;;;7.25;;
54384;SDS011;40284;52.878;5.998;2023-04-24T05:10:22;8.55;;;6.00;;
54384;SDS011;40284;52.878;5.998;2023-04-24T05:12:48;6.10;;;4.80;;
54384;SDS011;40284;52.878;5.998;2023-04-24T05:15:14;7.00;;;4.50;;
54384;SDS011;40284;52.878;5.998;2023-04-24T05:17:40;6.18;;;4.80;;
54384;SDS011;40284;52.878;5.998;2023-04-24T05:20:07;8.07;;;4.22;;
54384;SDS011;40284;52.878;5.998;2023-04-24T05:22:34;5.82;;;4.40;;
54384;SDS011;40284;52.878;5.998;2023-04-24T05:25:01;6.15;;;4.57;;
54384;SDS011;40284;52.878;5.998;2023-04-24T05:27:27;4.95;;;4.25;;
54384;SDS011;40284;52.878;5.998;2023-04-24T05:29:54;5.78;;;4.22;;
54384;SDS011;40284;52.878;5.998;2023-04-24T05:32:20;6.32;;;4.38;;
54384;SDS011;40284;52.878;5.998;2023-04-24T05:34:46;8.75;;;5.05;;
54384;SDS011;40284;52.878;5.998;2023-04-24T05:37:12;6.93;;;4.50;;
54384;SDS011;40284;52.878;5.998;2023-04-24T05:39:38;6.88;;;5.03;;
54384;SDS011;40284;52.878;5.998;2023-04-24T05:42:06;10.57;;;5.95;;
54384;SDS011;40284;52.878;5.998;2023-04-24T05:44:32;8.90;;;6.40;;
54384;SDS011;40284;52.878;5.998;2023-04-24T05:46:58;9.68;;;5.55;;
54384;SDS011;40284;52.878;5.998;2023-04-24T05:49:24;10.05;;;5.28;;
54384;SDS011;40284;52.878;5.998;2023-04-24T05:51:50;10.82;;;5.45;;
54384;SDS011;40284;52.878;5.998;2023-04-24T05:54:16;8.10;;;5.35;;
54384;SDS011;40284;52.878;5.998;2023-04-24T05:56:42;7.40;;;5.00;;
54384;SDS011;40284;52.878;5.998;2023-04-24T05:59:08;7.90;;;4.93;;
54384;SDS011;40284;52.878;5.998;2023-04-24T06:01:34;8.40;;;4.57;;
54384;SDS011;40284;52.878;5.998;2023-04-24T06:04:01;9.13;;;5.75;;
54384;SDS011;40284;52.878;5.998;2023-04-24T06:06:27;8.00;;;6.00;;
54384;SDS011;40284;52.878;5.998;2023-04-24T06:08:54;11.23;;;6.60;;
54384;SDS011;40284;52.878;5.998;2023-04-24T06:11:20;11.40;;;7.18;;
54384;SDS011;40284;52.878;5.998;2023-04-24T06:13:47;12.18;;;7.88;;
54384;SDS011;40284;52.878;5.998;2023-04-24T06:16:13;11.50;;;7.68;;
54384;SDS011;40284;52.878;5.998;2023-04-24T06:18:39;10.25;;;7.18;;
54384;SDS011;40284;52.878;5.998;2023-04-24T06:21:05;11.20;;;8.93;;
54384;SDS011;40284;52.878;5.998;2023-04-24T06:23:32;10.10;;;7.78;;
54384;SDS011;40284;52.878;5.998;2023-04-24T06:25:58;10.45;;;7.70;;
54384;SDS011;40284;52.878;5.998;2023-04-24T06:28:24;7.13;;;4.70;;
54384;SDS011;40284;52.878;5.998;2023-04-24T06:30:51;7.60;;;4.85;;
54384;SDS011;40284;52.878;5.998;2023-04-24T06:33:17;7.55;;;4.90;;
54384;SDS011;40284;52.878;5.998;2023-04-24T06:35:43;6.22;;;4.05;;
54384;SDS011;40284;52.878;5.998;2023-04-24T06:38:09;7.38;;;3.75;;
54384;SDS011;40284;52.878;5.998;2023-04-24T06:40:35;8.35;;;4.40;;
54384;SDS011;40284;52.878;5.998;2023-04-24T06:43:01;10.10;;;4.07;;
54384;SDS011;40284;52.878;5.998;2023-04-24T06:45:28;7.78;;;2.92;;
54384;SDS011;40284;52.878;5.998;2023-04-24T06:47:55;5.50;;;3.30;;
54384;SDS011;40284;52.878;5.998;2023-04-24T06:50:21;5.97;;;3.30;;
54384;SDS011;40284;52.878;5.998;2023-04-24T06:52:47;5.82;;;3.03;;
54384;SDS011;40284;52.878;5.998;2023-04-24T06:55:13;7.68;;;3.42;;
54384;SDS011;40284;52.878;5.998;2023-04-24T06:57:41;6.20;;;3.15;;
54384;SDS011;40284;52.878;5.998;2023-04-24T07:00:07;7.57;;;3.50;;
54384;SDS011;40284;52.878;5.998;2023-04-24T07:02:34;9.05;;;3.70;;
54384;SDS011;40284;52.878;5.998;2023-04-24T07:05:00;17.85;;;4.53;;
54384;SDS011;40284;52.878;5.998;2023-04-24T07:07:26;6.80;;;3.90;;
54384;SDS011;40284;52.878;5.998;2023-04-24T07:09:53;14.32;;;7.05;;
54384;SDS011;40284;52.878;5.998;2023-04-24T07:12:19;18.98;;;11.70;;
54384;SDS011;40284;52.878;5.998;2023-04-24T07:14:46;17.20;;;11.10;;
54384;SDS011;40284;52.878;5.998;2023-04-24T07:17:13;22.05;;;13.82;;
54384;SDS011;40284;52.878;5.998;2023-04-24T07:19:39;20.67;;;13.80;;
54384;SDS011;40284;52.878;5.998;2023-04-24T07:22:05;21.08;;;15.25;;
54384;SDS011;40284;52.878;5.998;2023-04-24T07:24:32;22.80;;;15.32;;
54384;SDS011;40284;52.878;5.998;2023-04-24T07:26:58;30.63;;;19.17;;
54384;SDS011;40284;52.878;5.998;2023-04-24T07:29:26;28.02;;;19.38;;
54384;SDS011;40284;52.878;5.998;2023-04-24T07:31:52;29.67;;;19.02;;
54384;SDS011;40284;52.878;5.998;2023-04-24T07:34:19;28.83;;;17.90;;
54384;SDS011;40284;52.878;5.998;2023-04-24T07:36:45;28.67;;;18.75;;
54384;SDS011;40284;52.878;5.998;2023-04-24T07:39:12;29.95;;;19.25;;
54384;SDS011;40284;52.878;5.998;2023-04-24T07:41:38;34.33;;;17.98;;
54384;SDS011;40284;52.878;5.998;2023-04-24T07:44:04;31.70;;;17.92;;
54384;SDS011;40284;52.878;5.998;2023-04-24T07:46:30;31.08;;;19.23;;
54384;SDS011;40284;52.878;5.998;2023-04-24T07:48:57;29.30;;;19.55;;
54384;SDS011;40284;52.878;5.998;2023-04-24T07:51:24;27.20;;;18.23;;
54384;SDS011;40284;52.878;5.998;2023-04-24T07:53:52;31.85;;;18.75;;
54384;SDS011;40284;52.878;5.998;2023-04-24T07:56:20;28.25;;;17.30;;
54384;SDS011;40284;52.878;5.998;2023-04-24T07:58:46;23.67;;;17.23;;
54384;SDS011;40284;52.878;5.998;2023-04-24T08:01:12;19.85;;;14.25;;
54384;SDS011;40284;52.878;5.998;2023-04-24T08:03:38;24.52;;;14.93;;
54384;SDS011;40284;52.878;5.998;2023-04-24T08:06:04;23.33;;;14.75;;
54384;SDS011;40284;52.878;5.998;2023-04-24T08:08:31;19.90;;;14.35;;
54384;SDS011;40284;52.878;5.998;2023-04-24T08:10:57;18.95;;;13.63;;
54384;SDS011;40284;52.878;5.998;2023-04-24T08:13:23;20.80;;;12.45;;
54384;SDS011;40284;52.878;5.998;2023-04-24T08:15:49;19.45;;;12.77;;
54384;SDS011;40284;52.878;5.998;2023-04-24T08:18:16;18.00;;;10.80;;
54384;SDS011;40284;52.878;5.998;2023-04-24T08:20:42;15.10;;;10.10;;
54384;SDS011;40284;52.878;5.998;2023-04-24T08:23:08;16.27;;;10.63;;
54384;SDS011;40284;52.878;5.998;2023-04-24T08:25:34;14.98;;;9.65;;
54384;SDS011;40284;52.878;5.998;2023-04-24T08:28:01;12.57;;;9.45;;
54384;SDS011;40284;52.878;5.998;2023-04-24T08:30:28;17.73;;;9.52;;
54384;SDS011;40284;52.878;5.998;2023-04-24T08:32:55;14.13;;;8.90;;
54384;SDS011;40284;52.878;5.998;2023-04-24T08:35:21;14.45;;;8.65;;
54384;SDS011;40284;52.878;5.998;2023-04-24T08:37:51;17.77;;;8.82;;
54384;SDS011;40284;52.878;5.998;2023-04-24T08:40:18;21.27;;;10.20;;
54384;SDS011;40284;52.878;5.998;2023-04-24T08:42:48;18.13;;;8.10;;
54384;SDS011;40284;52.878;5.998;2023-04-24T08:45:15;13.50;;;8.52;;
54384;SDS011;40284;52.878;5.998;2023-04-24T08:47:41;12.75;;;7.28;;
54384;SDS011;40284;52.878;5.998;2023-04-24T08:50:09;12.20;;;7.18;;
54384;SDS011;40284;52.878;5.998;2023-04-24T08:52:35;13.40;;;6.55;;
54384;SDS011;40284;52.878;5.998;2023-04-24T08:55:01;17.98;;;7.28;;
54384;SDS011;40284;52.878;5.998;2023-04-24T08:57:28;15.75;;;7.82;;
54384;SDS011;40284;52.878;5.998;2023-04-24T08:59:54;14.60;;;7.68;;
54384;SDS011;40284;52.878;5.998;2023-04-24T09:02:21;14.68;;;7.53;;
54384;SDS011;40284;52.878;5.998;2023-04-24T09:04:49;12.65;;;6.75;;
54384;SDS011;40284;52.878;5.998;2023-04-24T09:07:15;8.68;;;5.80;;
54384;SDS011;40284;52.878;5.998;2023-04-24T09:09:43;12.88;;;6.43;;
54384;SDS011;40284;52.878;5.998;2023-04-24T09:12:09;11.48;;;4.97;;
54384;SDS011;40284;52.878;5.998;2023-04-24T09:14:35;13.90;;;5.18;;
54384;SDS011;40284;52.878;5.998;2023-04-24T09:17:07;8.60;;;4.55;;
54384;SDS011;40284;52.878;5.998;2023-04-24T09:19:33;9.35;;;4.55;;
54384;SDS011;40284;52.878;5.998;2023-04-24T09:21:59;13.98;;;4.35;;
54384;SDS011;40284;52.878;5.998;2023-04-24T09:24:30;13.10;;;4.78;;
54384;SDS011;40284;52.878;5.998;2023-04-24T09:26:57;15.15;;;5.35;;
54384;SDS011;40284;52.878;5.998;2023-04-24T09:29:29;10.45;;;4.50;;
54384;SDS011;40284;52.878;5.998;2023-04-24T09:31:57;10.63;;;5.25;;
54384;SDS011;40284;52.878;5.998;2023-04-24T09:34:24;13.63;;;3.97;;
54384;SDS011;40284;52.878;5.998;2023-04-24T09:36:51;15.27;;;4.95;;
54384;SDS011;40284;52.878;5.998;2023-04-24T09:39:18;11.13;;;3.95;;
54384;SDS011;40284;52.878;5.998;2023-04-24T09:41:50;12.68;;;3.85;;
54384;SDS011;40284;52.878;5.998;2023-04-24T09:44:17;14.93;;;4.13;;
54384;SDS011;40284;52.878;5.998;2023-04-24T09:46:57;8.35;;;3.55;;
54384;SDS011;40284;52.878;5.998;2023-04-24T09:51:49;8.60;;;3.03;;
54384;SDS011;40284;52.878;5.998;2023-04-24T09:54:16;11.90;;;2.92;;
54384;SDS011;40284;52.878;5.998;2023-04-24T09:56:45;21.48;;;4.03;;
54384;SDS011;40284;52.878;5.998;2023-04-24T09:59:12;11.95;;;2.95;;
54384;SDS011;40284;52.878;5.998;2023-04-24T10:01:38;8.48;;;2.95;;
54384;SDS011;40284;52.878;5.998;2023-04-24T10:04:14;5.93;;;2.53;;
54384;SDS011;40284;52.878;5.998;2023-04-24T10:06:42;14.65;;;3.55;;
54384;SDS011;40284;52.878;5.998;2023-04-24T10:09:08;9.75;;;2.85;;
54384;SDS011;40284;52.878;5.998;2023-04-24T10:11:36;9.63;;;3.72;;
54384;SDS011;40284;52.878;5.998;2023-04-24T10:14:02;12.57;;;3.88;;
54384;SDS011;40284;52.878;5.998;2023-04-24T10:16:29;13.85;;;4.25;;
54384;SDS011;40284;52.878;5.998;2023-04-24T10:18:55;14.55;;;3.40;;
54384;SDS011;40284;52.878;5.998;2023-04-24T10:21:23;12.10;;;3.00;;
54384;SDS011;40284;52.878;5.998;2023-04-24T10:23:49;8.10;;;3.53;;
54384;SDS011;40284;52.878;5.998;2023-04-24T10:26:16;13.57;;;3.42;;
54384;SDS011;40284;52.878;5.998;2023-04-24T10:28:46;10.65;;;3.25;;
54384;SDS011;40284;52.878;5.998;2023-04-24T10:31:13;10.57;;;3.00;;
54384;SDS011;40284;52.878;5.998;2023-04-24T10:33:42;12.77;;;3.72;;
54384;SDS011;40284;52.878;5.998;2023-04-24T10:36:09;10.98;;;2.75;;
54384;SDS011;40284;52.878;5.998;2023-04-24T10:38:36;9.00;;;2.70;;
54384;SDS011;40284;52.878;5.998;2023-04-24T10:41:09;9.20;;;2.95;;
54384;SDS011;40284;52.878;5.998;2023-04-24T10:43:40;9.35;;;2.40;;
54384;SDS011;40284;52.878;5.998;2023-04-24T10:46:07;10.57;;;2.60;;
54384;SDS011;40284;52.878;5.998;2023-04-24T10:48:35;14.75;;;3.38;;
54384;SDS011;40284;52.878;5.998;2023-04-24T10:51:01;7.38;;;2.42;;
54384;SDS011;40284;52.878;5.998;2023-04-24T10:53:28;11.30;;;2.15;;
54384;SDS011;40284;52.878;5.998;2023-04-24T10:55:58;5.22;;;1.70;;
54384;SDS011;40284;52.878;5.998;2023-04-24T10:58:43;10.63;;;2.22;;
54384;SDS011;40284;52.878;5.998;2023-04-24T11:03:51;8.05;;;2.30;;
54384;SDS011;40284;52.878;5.998;2023-04-24T11:06:27;8.18;;;2.45;;
54384;SDS011;40284;52.878;5.998;2023-04-24T11:08:57;4.45;;;1.80;;
54384;SDS011;40284;52.878;5.998;2023-04-24T11:11:24;8.57;;;2.47;;
54384;SDS011;40284;52.878;5.998;2023-04-24T11:16:28;10.98;;;2.30;;
54384;SDS011;40284;52.878;5.998;2023-04-24T11:21:39;18.50;;;3.13;;
54384;SDS011;40284;52.878;5.998;2023-04-24T11:24:25;9.60;;;2.50;;
54384;SDS011;40284;52.878;5.998;2023-04-24T11:26:55;13.45;;;2.78;;
54384;SDS011;40284;52.878;5.998;2023-04-24T11:29:22;6.85;;;2.10;;
54384;SDS011;40284;52.878;5.998;2023-04-24T11:31:48;8.35;;;2.10;;
54384;SDS011;40284;52.878;5.998;2023-04-24T11:34:17;9.50;;;2.03;;
54384;SDS011;40284;52.878;5.998;2023-04-24T11:36:44;6.50;;;1.98;;
54384;SDS011;40284;52.878;5.998;2023-04-24T11:39:10;4.85;;;1.38;;
54384;SDS011;40284;52.878;5.998;2023-04-24T11:41:36;5.20;;;1.70;;
54384;SDS011;40284;52.878;5.998;2023-04-24T11:44:03;4.80;;;1.58;;
54384;SDS011;40284;52.878;5.998;2023-04-24T11:46:29;7.43;;;1.88;;
54384;SDS011;40284;52.878;5.998;2023-04-24T11:48:56;3.42;;;1.38;;
54384;SDS011;40284;52.878;5.998;2023-04-24T11:51:23;4.22;;;1.30;;
54384;SDS011;40284;52.878;5.998;2023-04-24T11:53:50;6.20;;;1.35;;
54384;SDS011;40284;52.878;5.998;2023-04-24T11:56:17;8.95;;;1.40;;
54384;SDS011;40284;52.878;5.998;2023-04-24T11:58:44;5.05;;;1.92;;
54384;SDS011;40284;52.878;5.998;2023-04-24T12:01:11;3.80;;;1.27;;
54384;SDS011;40284;52.878;5.998;2023-04-24T12:03:38;3.08;;;1.30;;
54384;SDS011;40284;52.878;5.998;2023-04-24T12:06:08;9.98;;;3.13;;
54384;SDS011;40284;52.878;5.998;2023-04-24T12:08:34;6.32;;;1.70;;
54384;SDS011;40284;52.878;5.998;2023-04-24T12:11:01;6.18;;;1.95;;
54384;SDS011;40284;52.878;5.998;2023-04-24T12:13:27;4.82;;;1.30;;
54384;SDS011;40284;52.878;5.998;2023-04-24T12:15:54;5.50;;;2.30;;
54384;SDS011;40284;52.878;5.998;2023-04-24T12:18:24;8.27;;;1.63;;
54384;SDS011;40284;52.878;5.998;2023-04-24T12:20:50;4.45;;;1.50;;
54384;SDS011;40284;52.878;5.998;2023-04-24T12:23:16;8.05;;;1.75;;
54384;SDS011;40284;52.878;5.998;2023-04-24T12:25:44;7.18;;;1.80;;
54384;SDS011;40284;52.878;5.998;2023-04-24T12:28:11;6.20;;;1.75;;
54384;SDS011;40284;52.878;5.998;2023-04-24T12:30:44;7.25;;;1.40;;
54384;SDS011;40284;52.878;5.998;2023-04-24T12:33:17;8.32;;;1.70;;
54384;SDS011;40284;52.878;5.998;2023-04-24T12:35:43;6.63;;;1.95;;
54384;SDS011;40284;52.878;5.998;2023-04-24T12:38:10;7.68;;;1.42;;
54384;SDS011;40284;52.878;5.998;2023-04-24T12:40:38;8.25;;;1.38;;
54384;SDS011;40284;52.878;5.998;2023-04-24T12:43:22;5.30;;;1.42;;
54384;SDS011;40284;52.878;5.998;2023-04-24T12:45:48;3.83;;;1.50;;
54384;SDS011;40284;52.878;5.998;2023-04-24T12:48:14;7.63;;;1.20;;
54384;SDS011;40284;52.878;5.998;2023-04-24T12:50:40;6.88;;;1.10;;
54384;SDS011;40284;52.878;5.998;2023-04-24T12:53:07;8.73;;;1.88;;
54384;SDS011;40284;52.878;5.998;2023-04-24T12:55:34;7.57;;;1.70;;
54384;SDS011;40284;52.878;5.998;2023-04-24T12:58:00;4.15;;;1.48;;
54384;SDS011;40284;52.878;5.998;2023-04-24T13:00:27;4.75;;;1.30;;
54384;SDS011;40284;52.878;5.998;2023-04-24T13:02:54;9.85;;;1.90;;
54384;SDS011;40284;52.878;5.998;2023-04-24T13:05:20;6.82;;;1.52;;
54384;SDS011;40284;52.878;5.998;2023-04-24T13:07:46;8.15;;;2.10;;
54384;SDS011;40284;52.878;5.998;2023-04-24T13:10:12;11.30;;;2.90;;
54384;SDS011;40284;52.878;5.998;2023-04-24T13:12:38;9.52;;;2.80;;
54384;SDS011;40284;52.878;5.998;2023-04-24T13:15:05;9.60;;;2.03;;
54384;SDS011;40284;52.878;5.998;2023-04-24T13:17:32;8.35;;;3.60;;
54384;SDS011;40284;52.878;5.998;2023-04-24T13:19:58;7.88;;;2.00;;
54384;SDS011;40284;52.878;5.998;2023-04-24T13:22:24;8.68;;;1.70;;
54384;SDS011;40284;52.878;5.998;2023-04-24T13:24:50;8.18;;;2.75;;
54384;SDS011;40284;52.878;5.998;2023-04-24T13:27:17;10.85;;;2.95;;
54384;SDS011;40284;52.878;5.998;2023-04-24T13:29:43;8.63;;;2.47;;
54384;SDS011;40284;52.878;5.998;2023-04-24T13:32:09;12.25;;;2.88;;
54384;SDS011;40284;52.878;5.998;2023-04-24T13:34:36;9.60;;;2.88;;
54384;SDS011;40284;52.878;5.998;2023-04-24T13:37:02;14.52;;;3.88;;
54384;SDS011;40284;52.878;5.998;2023-04-24T13:39:32;12.00;;;3.42;;
54384;SDS011;40284;52.878;5.998;2023-04-24T13:41:59;13.82;;;2.70;;
54384;SDS011;40284;52.878;5.998;2023-04-24T13:44:25;15.95;;;3.13;;
54384;SDS011;40284;52.878;5.998;2023-04-24T13:46:52;15.65;;;3.97;;
54384;SDS011;40284;52.878;5.998;2023-04-24T13:49:19;13.82;;;4.13;;
54384;SDS011;40284;52.878;5.998;2023-04-24T13:51:46;12.88;;;2.53;;
54384;SDS011;40284;52.878;5.998;2023-04-24T13:54:12;12.98;;;3.47;;
54384;SDS011;40284;52.878;5.998;2023-04-24T13:56:39;10.43;;;2.92;;
54384;SDS011;40284;52.878;5.998;2023-04-24T13:59:05;12.77;;;3.85;;
54384;SDS011;40284;52.878;5.998;2023-04-24T14:01:32;13.95;;;3.45;;
54384;SDS011;40284;52.878;5.998;2023-04-24T14:03:58;17.08;;;3.40;;
54384;SDS011;40284;52.878;5.998;2023-04-24T14:06:24;13.13;;;3.35;;
54384;SDS011;40284;52.878;5.998;2023-04-24T14:08:50;15.77;;;4.07;;
54384;SDS011;40284;52.878;5.998;2023-04-24T14:11:17;19.52;;;4.72;;
54384;SDS011;40284;52.878;5.998;2023-04-24T14:13:43;11.20;;;2.85;;
54384;SDS011;40284;52.878;5.998;2023-04-24T14:16:10;10.35;;;3.53;;
54384;SDS011;40284;52.878;5.998;2023-04-24T14:18:36;9.48;;;3.35;;
54384;SDS011;40284;52.878;5.998;2023-04-24T14:21:02;12.27;;;2.90;;
54384;SDS011;40284;52.878;5.998;2023-04-24T14:23:28;12.95;;;2.83;;
54384;SDS011;40284;52.878;5.998;2023-04-24T14:25:55;9.73;;;2.40;;
54384;SDS011;40284;52.878;5.998;2023-04-24T14:28:21;14.63;;;2.97;;
54384;SDS011;40284;52.878;5.998;2023-04-24T14:30:47;11.05;;;3.38;;
54384;SDS011;40284;52.878;5.998;2023-04-24T14:33:14;13.82;;;3.30;;
54384;SDS011;40284;52.878;5.998;2023-04-24T14:35:40;12.60;;;3.00;;
54384;SDS011;40284;52.878;5.998;2023-04-24T14:38:10;14.20;;;2.97;;
54384;SDS011;40284;52.878;5.998;2023-04-24T14:40:36;10.77;;;3.33;;
54384;SDS011;40284;52.878;5.998;2023-04-24T14:43:02;16.50;;;3.85;;
54384;SDS011;40284;52.878;5.998;2023-04-24T14:45:28;14.82;;;3.45;;